sensor_id;sensor_type;location;lat;lon;timestamp;pressure;altitude;pressure_sealevel;temperature;humidity
26376;BME280;30544;42.196;24.336;2023-03-21T00:01:07;99088.91;;;11.09;65.50
26376;BME280;30544;42.196;24.336;2023-03-21T00:03:37;99095.63;;;11.13;65.13
26376;BME280;30544;42.196;24.336;2023-03-21T00:06:05;99090.06;;;11.13;65.28
26376;BME280;30544;42.196;24.336;2023-03-21T00:08:32;99088.22;;;11.02;65.78
26376;BME280;30544;42.196;24.336;2023-03-21T00:11:01;99083.13;;;10.94;66.36
26376;BME280;30544;42.196;24.336;2023-03-21T00:13:29;99078.16;;;10.96;65.82
26376;BME280;30544;42.196;24.336;2023-03-21T00:16:04;99083.97;;;10.95;66.61
26376;BME280;30544;42.196;24.336;2023-03-21T00:18:32;99078.31;;;10.90;67.63
26376;BME280;30544;42.196;24.336;2023-03-21T00:21:03;99070.56;;;10.75;67.75
26376;BME280;30544;42.196;24.336;2023-03-21T00:23:32;99074.44;;;10.74;67.79
26376;BME280;30544;42.196;24.336;2023-03-21T00:25:59;99076.06;;;10.70;67.68
26376;BME280;30544;42.196;24.336;2023-03-21T00:28:26;99071.78;;;10.79;67.38
26376;BME280;30544;42.196;24.336;2023-03-21T00:30:56;99060.34;;;10.75;68.06
26376;BME280;30544;42.196;24.336;2023-03-21T00:33:23;99052.50;;;10.89;67.84
26376;BME280;30544;42.196;24.336;2023-03-21T00:35:51;99055.38;;;10.77;67.98
26376;BME280;30544;42.196;24.336;2023-03-21T00:38:18;99039.00;;;10.76;67.84
26376;BME280;30544;42.196;24.336;2023-03-21T00:40:45;99049.59;;;10.79;67.60
26376;BME280;30544;42.196;24.336;2023-03-21T00:43:12;99036.78;;;10.95;67.64
26376;BME280;30544;42.196;24.336;2023-03-21T00:45:42;99038.88;;;10.88;68.40
26376;BME280;30544;42.196;24.336;2023-03-21T00:48:09;99041.50;;;10.77;68.86
26376;BME280;30544;42.196;24.336;2023-03-21T00:50:36;99036.69;;;10.73;68.28
26376;BME280;30544;42.196;24.336;2023-03-21T00:53:04;99029.06;;;10.80;68.62
26376;BME280;30544;42.196;24.336;2023-03-21T00:55:32;99023.31;;;11.03;66.76
26376;BME280;30544;42.196;24.336;2023-03-21T00:57:59;99017.38;;;10.95;67.29
26376;BME280;30544;42.196;24.336;2023-03-21T01:00:26;99014.75;;;10.88;68.25
26376;BME280;30544;42.196;24.336;2023-03-21T01:02:53;99005.72;;;11.14;66.77
26376;BME280;30544;42.196;24.336;2023-03-21T01:05:24;99006.47;;;11.10;66.48
26376;BME280;30544;42.196;24.336;2023-03-21T01:08:06;99003.94;;;11.08;67.67
26376;BME280;30544;42.196;24.336;2023-03-21T01:10:37;99006.13;;;11.06;67.12
26376;BME280;30544;42.196;24.336;2023-03-21T01:13:04;99010.22;;;11.21;67.00
26376;BME280;30544;42.196;24.336;2023-03-21T01:15:31;99008.41;;;11.09;66.43
26376;BME280;30544;42.196;24.336;2023-03-21T01:17:58;99003.72;;;11.10;66.72
26376;BME280;30544;42.196;24.336;2023-03-21T01:20:25;99000.88;;;11.27;66.17
26376;BME280;30544;42.196;24.336;2023-03-21T01:22:52;98999.75;;;11.06;66.61
26376;BME280;30544;42.196;24.336;2023-03-21T01:25:20;98987.44;;;11.19;66.33
26376;BME280;30544;42.196;24.336;2023-03-21T01:27:47;98984.81;;;11.29;66.13
26376;BME280;30544;42.196;24.336;2023-03-21T01:30:14;98983.31;;;11.43;65.82
26376;BME280;30544;42.196;24.336;2023-03-21T01:32:41;98973.75;;;11.34;65.81
26376;BME280;30544;42.196;24.336;2023-03-21T01:35:08;98971.09;;;11.22;65.99
26376;BME280;30544;42.196;24.336;2023-03-21T01:37:35;98974.28;;;11.31;65.20
26376;BME280;30544;42.196;24.336;2023-03-21T01:40:03;98965.91;;;11.26;65.30
26376;BME280;30544;42.196;24.336;2023-03-21T01:42:32;98969.69;;;11.20;66.25
26376;BME280;30544;42.196;24.336;2023-03-21T01:45:00;98969.03;;;11.12;66.01
26376;BME280;30544;42.196;24.336;2023-03-21T01:47:28;98977.31;;;10.91;67.11
26376;BME280;30544;42.196;24.336;2023-03-21T01:49:56;98976.19;;;11.08;66.42
26376;BME280;30544;42.196;24.336;2023-03-21T01:52:28;98972.38;;;10.93;65.55
26376;BME280;30544;42.196;24.336;2023-03-21T01:54:57;98970.00;;;11.01;65.69
26376;BME280;30544;42.196;24.336;2023-03-21T01:57:28;98972.13;;;10.94;65.84
26376;BME280;30544;42.196;24.336;2023-03-21T01:59:59;98975.84;;;10.83;66.51
26376;BME280;30544;42.196;24.336;2023-03-21T02:02:38;98972.72;;;10.96;65.89
26376;BME280;30544;42.196;24.336;2023-03-21T02:05:23;98970.03;;;10.84;67.53
26376;BME280;30544;42.196;24.336;2023-03-21T02:07:53;98976.16;;;10.87;67.04
26376;BME280;30544;42.196;24.336;2023-03-21T02:10:20;98972.91;;;10.73;68.10
26376;BME280;30544;42.196;24.336;2023-03-21T02:12:47;98966.25;;;10.74;68.30
26376;BME280;30544;42.196;24.336;2023-03-21T02:15:15;98973.50;;;10.75;67.61
26376;BME280;30544;42.196;24.336;2023-03-21T02:17:44;98970.03;;;10.84;68.20
26376;BME280;30544;42.196;24.336;2023-03-21T02:20:38;98967.00;;;10.86;67.89
26376;BME280;30544;42.196;24.336;2023-03-21T02:23:38;98974.13;;;10.99;67.49
26376;BME280;30544;42.196;24.336;2023-03-21T02:26:36;98991.94;;;10.47;70.03
26376;BME280;30544;42.196;24.336;2023-03-21T02:29:16;98986.13;;;10.32;70.75
26376;BME280;30544;42.196;24.336;2023-03-21T02:31:56;98989.41;;;10.29;69.95
26376;BME280;30544;42.196;24.336;2023-03-21T02:34:46;98982.09;;;10.57;69.79
26376;BME280;30544;42.196;24.336;2023-03-21T02:37:25;98988.91;;;10.49;69.37
26376;BME280;30544;42.196;24.336;2023-03-21T02:40:02;98987.81;;;10.33;70.24
26376;BME280;30544;42.196;24.336;2023-03-21T02:42:43;98990.41;;;10.40;69.71
26376;BME280;30544;42.196;24.336;2023-03-21T02:45:16;98994.59;;;10.09;71.79
26376;BME280;30544;42.196;24.336;2023-03-21T02:47:46;98992.25;;;10.34;71.39
26376;BME280;30544;42.196;24.336;2023-03-21T02:50:20;98985.81;;;10.45;70.68
26376;BME280;30544;42.196;24.336;2023-03-21T02:52:51;98995.47;;;10.26;71.08
26376;BME280;30544;42.196;24.336;2023-03-21T02:55:23;98985.63;;;10.35;70.56
26376;BME280;30544;42.196;24.336;2023-03-21T02:57:52;98990.91;;;10.53;70.46
26376;BME280;30544;42.196;24.336;2023-03-21T03:00:22;98985.69;;;10.40;70.93
26376;BME280;30544;42.196;24.336;2023-03-21T03:02:50;98994.78;;;10.52;70.63
26376;BME280;30544;42.196;24.336;2023-03-21T03:05:21;98998.84;;;10.45;69.96
26376;BME280;30544;42.196;24.336;2023-03-21T03:07:58;99000.84;;;10.49;70.37
26376;BME280;30544;42.196;24.336;2023-03-21T03:10:53;99000.50;;;10.46;71.01
26376;BME280;30544;42.196;24.336;2023-03-21T03:13:28;99005.09;;;10.57;70.04
26376;BME280;30544;42.196;24.336;2023-03-21T03:16:03;99008.41;;;10.37;70.96
26376;BME280;30544;42.196;24.336;2023-03-21T03:18:40;99004.19;;;10.51;70.67
26376;BME280;30544;42.196;24.336;2023-03-21T03:21:17;98999.81;;;10.55;70.55
26376;BME280;30544;42.196;24.336;2023-03-21T03:23:49;99002.94;;;10.42;70.42
26376;BME280;30544;42.196;24.336;2023-03-21T03:26:22;99001.75;;;10.21;71.81
26376;BME280;30544;42.196;24.336;2023-03-21T03:28:52;99001.16;;;10.36;71.59
26376;BME280;30544;42.196;24.336;2023-03-21T03:31:23;98995.13;;;10.39;71.57
26376;BME280;30544;42.196;24.336;2023-03-21T03:33:53;98988.59;;;10.45;71.20
26376;BME280;30544;42.196;24.336;2023-03-21T03:36:25;98990.41;;;10.40;70.59
26376;BME280;30544;42.196;24.336;2023-03-21T03:38:56;98996.72;;;10.52;70.96
26376;BME280;30544;42.196;24.336;2023-03-21T03:41:26;98987.72;;;10.62;70.20
26376;BME280;30544;42.196;24.336;2023-03-21T03:43:55;98986.78;;;10.56;70.32
26376;BME280;30544;42.196;24.336;2023-03-21T03:46:26;98984.28;;;10.54;70.54
26376;BME280;30544;42.196;24.336;2023-03-21T03:48:57;98993.09;;;10.51;70.99
26376;BME280;30544;42.196;24.336;2023-03-21T03:51:28;98980.00;;;10.30;71.15
26376;BME280;30544;42.196;24.336;2023-03-21T03:54:01;98985.81;;;10.45;70.90
26376;BME280;30544;42.196;24.336;2023-03-21T03:56:30;98974.13;;;10.43;70.47
26376;BME280;30544;42.196;24.336;2023-03-21T03:58:57;98983.50;;;10.09;71.00
26376;BME280;30544;42.196;24.336;2023-03-21T04:01:24;98976.81;;;10.21;72.70
26376;BME280;30544;42.196;24.336;2023-03-21T04:03:51;98976.81;;;10.21;72.13
26376;BME280;30544;42.196;24.336;2023-03-21T04:06:17;98965.47;;;10.23;71.53
26376;BME280;30544;42.196;24.336;2023-03-21T04:08:46;98970.22;;;10.11;72.54
26376;BME280;30544;42.196;24.336;2023-03-21T04:11:14;98970.63;;;10.03;73.15
26376;BME280;30544;42.196;24.336;2023-03-21T04:13:41;98970.00;;;10.29;72.39
26376;BME280;30544;42.196;24.336;2023-03-21T04:16:09;98973.41;;;10.03;72.34
26376;BME280;30544;42.196;24.336;2023-03-21T04:18:36;98975.25;;;9.97;73.66
26376;BME280;30544;42.196;24.336;2023-03-21T04:21:07;98977.50;;;10.00;73.98
26376;BME280;30544;42.196;24.336;2023-03-21T04:23:34;98977.78;;;10.15;73.33
26376;BME280;30544;42.196;24.336;2023-03-21T04:26:02;98975.41;;;10.07;72.81
26376;BME280;30544;42.196;24.336;2023-03-21T04:28:31;98980.13;;;10.07;73.13
26376;BME280;30544;42.196;24.336;2023-03-21T04:30:58;98989.50;;;10.06;73.12
26376;BME280;30544;42.196;24.336;2023-03-21T04:33:24;98990.81;;;10.15;73.41
26376;BME280;30544;42.196;24.336;2023-03-21T04:35:51;98987.88;;;10.21;73.11
26376;BME280;30544;42.196;24.336;2023-03-21T04:38:20;98984.72;;;10.30;72.36
26376;BME280;30544;42.196;24.336;2023-03-21T04:40:47;98982.41;;;10.10;72.72
26376;BME280;30544;42.196;24.336;2023-03-21T04:43:14;98978.72;;;10.21;73.45
26376;BME280;30544;42.196;24.336;2023-03-21T04:45:42;98993.09;;;10.35;72.28
26376;BME280;30544;42.196;24.336;2023-03-21T04:48:09;98990.41;;;10.40;71.83
26376;BME280;30544;42.196;24.336;2023-03-21T04:50:38;98990.09;;;10.36;72.76
26376;BME280;30544;42.196;24.336;2023-03-21T04:53:05;98989.31;;;10.41;72.45
26376;BME280;30544;42.196;24.336;2023-03-21T04:55:32;98997.28;;;10.71;71.55
26376;BME280;30544;42.196;24.336;2023-03-21T04:57:58;99001.13;;;10.87;70.08
26376;BME280;30544;42.196;24.336;2023-03-21T05:00:25;98999.81;;;10.72;71.45
26376;BME280;30544;42.196;24.336;2023-03-21T05:02:53;99002.78;;;11.04;70.06
26376;BME280;30544;42.196;24.336;2023-03-21T05:05:22;98998.16;;;11.10;69.48
26376;BME280;30544;42.196;24.336;2023-03-21T05:07:49;98996.06;;;11.00;69.71
26376;BME280;30544;42.196;24.336;2023-03-21T05:10:16;98991.47;;;11.28;68.85
26376;BME280;30544;42.196;24.336;2023-03-21T05:12:43;98988.00;;;11.21;69.54
26376;BME280;30544;42.196;24.336;2023-03-21T05:15:09;98988.97;;;11.53;68.27
26376;BME280;30544;42.196;24.336;2023-03-21T05:17:36;98985.56;;;11.46;68.45
26376;BME280;30544;42.196;24.336;2023-03-21T05:20:05;98990.91;;;11.53;68.62
26376;BME280;30544;42.196;24.336;2023-03-21T05:22:34;98993.81;;;11.19;69.25
26376;BME280;30544;42.196;24.336;2023-03-21T05:25:07;98983.25;;;11.16;69.72
26376;BME280;30544;42.196;24.336;2023-03-21T05:27:34;98984.28;;;11.32;69.52
26376;BME280;30544;42.196;24.336;2023-03-21T05:30:04;98990.03;;;11.47;69.70
26376;BME280;30544;42.196;24.336;2023-03-21T05:32:32;98985.19;;;11.59;68.96
26376;BME280;30544;42.196;24.336;2023-03-21T05:34:59;98987.19;;;11.64;68.90
26376;BME280;30544;42.196;24.336;2023-03-21T05:37:27;98997.38;;;11.80;68.55
26376;BME280;30544;42.196;24.336;2023-03-21T05:39:54;98998.34;;;11.25;70.56
26376;BME280;30544;42.196;24.336;2023-03-21T05:42:21;99007.31;;;11.54;69.79
26376;BME280;30544;42.196;24.336;2023-03-21T05:44:48;99010.31;;;11.48;70.79
26376;BME280;30544;42.196;24.336;2023-03-21T05:47:17;99006.41;;;11.70;69.59
26376;BME280;30544;42.196;24.336;2023-03-21T05:49:44;99006.63;;;11.64;71.08
26376;BME280;30544;42.196;24.336;2023-03-21T05:52:11;98997.97;;;11.17;73.08
26376;BME280;30544;42.196;24.336;2023-03-21T05:54:43;98998.78;;;11.39;72.72
26376;BME280;30544;42.196;24.336;2023-03-21T05:57:10;99003.56;;;11.65;71.37
26376;BME280;30544;42.196;24.336;2023-03-21T05:59:37;99004.19;;;11.72;71.16
26376;BME280;30544;42.196;24.336;2023-03-21T06:02:04;98999.63;;;11.39;71.61
26376;BME280;30544;42.196;24.336;2023-03-21T06:04:30;98999.66;;;11.61;70.75
26376;BME280;30544;42.196;24.336;2023-03-21T06:06:57;98999.25;;;11.31;72.61
26376;BME280;30544;42.196;24.336;2023-03-21T06:09:24;99006.44;;;11.49;71.97
26376;BME280;30544;42.196;24.336;2023-03-21T06:11:54;99003.72;;;11.32;72.79
26376;BME280;30544;42.196;24.336;2023-03-21T06:14:22;99004.66;;;11.86;70.94
26376;BME280;30544;42.196;24.336;2023-03-21T06:16:49;99004.16;;;11.67;71.73
26376;BME280;30544;42.196;24.336;2023-03-21T06:19:18;98995.28;;;11.92;71.63
26376;BME280;30544;42.196;24.336;2023-03-21T06:21:44;98994.72;;;12.17;70.37
26376;BME280;30544;42.196;24.336;2023-03-21T06:24:11;99001.28;;;11.79;72.77
26376;BME280;30544;42.196;24.336;2023-03-21T06:26:39;99002.25;;;12.22;71.32
26376;BME280;30544;42.196;24.336;2023-03-21T06:29:08;99010.41;;;12.28;71.28
26376;BME280;30544;42.196;24.336;2023-03-21T06:31:35;99017.94;;;12.06;71.68
26376;BME280;30544;42.196;24.336;2023-03-21T06:34:04;99011.13;;;12.51;70.88
26376;BME280;30544;42.196;24.336;2023-03-21T06:36:31;99014.66;;;12.41;70.84
26376;BME280;30544;42.196;24.336;2023-03-21T06:38:58;99013.50;;;12.69;70.17
26376;BME280;30544;42.196;24.336;2023-03-21T06:41:24;99019.91;;;12.70;70.28
26376;BME280;30544;42.196;24.336;2023-03-21T06:43:51;99028.63;;;12.78;70.31
26376;BME280;30544;42.196;24.336;2023-03-21T06:46:19;99019.00;;;12.96;68.89
26376;BME280;30544;42.196;24.336;2023-03-21T06:48:46;99023.94;;;12.89;70.18
26376;BME280;30544;42.196;24.336;2023-03-21T06:51:14;99014.03;;;13.03;68.67
26376;BME280;30544;42.196;24.336;2023-03-21T06:53:41;99023.41;;;12.92;69.89
26376;BME280;30544;42.196;24.336;2023-03-21T06:56:10;99021.69;;;13.23;69.24
26376;BME280;30544;42.196;24.336;2023-03-21T06:58:37;99011.75;;;13.42;68.05
26376;BME280;30544;42.196;24.336;2023-03-21T07:01:04;99014.25;;;13.34;67.91
26376;BME280;30544;42.196;24.336;2023-03-21T07:03:34;99021.00;;;13.06;69.87
26376;BME280;30544;42.196;24.336;2023-03-21T07:06:06;99016.91;;;13.76;66.74
26376;BME280;30544;42.196;24.336;2023-03-21T07:08:36;99020.38;;;14.08;66.45
26376;BME280;30544;42.196;24.336;2023-03-21T07:11:03;99027.94;;;14.18;65.76
26376;BME280;30544;42.196;24.336;2023-03-21T07:13:31;99032.25;;;13.73;67.28
26376;BME280;30544;42.196;24.336;2023-03-21T07:15:58;99022.97;;;14.61;64.90
26376;BME280;30544;42.196;24.336;2023-03-21T07:18:25;99022.94;;;14.40;65.41
26376;BME280;30544;42.196;24.336;2023-03-21T07:20:53;99025.06;;;13.93;66.45
26376;BME280;30544;42.196;24.336;2023-03-21T07:23:21;99024.03;;;14.34;65.37
26376;BME280;30544;42.196;24.336;2023-03-21T07:25:50;99014.03;;;14.84;65.29
26376;BME280;30544;42.196;24.336;2023-03-21T07:28:18;99014.59;;;14.86;64.26
26376;BME280;30544;42.196;24.336;2023-03-21T07:30:50;99004.84;;;14.63;64.70
26376;BME280;30544;42.196;24.336;2023-03-21T07:33:17;98997.53;;;14.93;63.75
26376;BME280;30544;42.196;24.336;2023-03-21T07:35:43;98999.19;;;14.18;66.89
26376;BME280;30544;42.196;24.336;2023-03-21T07:38:11;98996.47;;;14.79;65.96
26376;BME280;30544;42.196;24.336;2023-03-21T07:40:41;98990.78;;;15.29;62.80
26376;BME280;30544;42.196;24.336;2023-03-21T07:43:07;98994.16;;;15.16;64.12
26376;BME280;30544;42.196;24.336;2023-03-21T07:45:34;98984.06;;;15.25;63.92
26376;BME280;30544;42.196;24.336;2023-03-21T07:48:01;98989.88;;;15.49;62.71
26376;BME280;30544;42.196;24.336;2023-03-21T07:50:28;98995.63;;;14.58;64.92
26376;BME280;30544;42.196;24.336;2023-03-21T07:52:55;98992.81;;;14.73;65.42
26376;BME280;30544;42.196;24.336;2023-03-21T07:55:23;98989.16;;;14.93;64.69
26376;BME280;30544;42.196;24.336;2023-03-21T07:57:50;98998.16;;;14.80;65.38
26376;BME280;30544;42.196;24.336;2023-03-21T08:00:18;98995.44;;;15.54;63.44
26376;BME280;30544;42.196;24.336;2023-03-21T08:02:48;98999.97;;;15.35;62.57
26376;BME280;30544;42.196;24.336;2023-03-21T08:05:19;98999.53;;;14.87;64.63
26376;BME280;30544;42.196;24.336;2023-03-21T08:07:46;98993.81;;;15.38;62.88
26376;BME280;30544;42.196;24.336;2023-03-21T08:10:13;99005.38;;;15.86;61.71
26376;BME280;30544;42.196;24.336;2023-03-21T08:12:41;98996.06;;;15.36;62.00
26376;BME280;30544;42.196;24.336;2023-03-21T08:15:09;98995.56;;;15.19;62.86
26376;BME280;30544;42.196;24.336;2023-03-21T08:17:36;98992.34;;;15.56;62.35
26376;BME280;30544;42.196;24.336;2023-03-21T08:20:05;98985.97;;;16.05;60.92
26376;BME280;30544;42.196;24.336;2023-03-21T08:22:33;98980.63;;;15.54;61.70
26376;BME280;30544;42.196;24.336;2023-03-21T08:25:00;98983.31;;;14.38;65.47
26376;BME280;30544;42.196;24.336;2023-03-21T08:27:29;98988.88;;;15.04;64.21
26376;BME280;30544;42.196;24.336;2023-03-21T08:29:57;98991.34;;;15.31;63.30
26376;BME280;30544;42.196;24.336;2023-03-21T08:32:25;98981.28;;;15.30;63.12
26376;BME280;30544;42.196;24.336;2023-03-21T08:34:54;98980.84;;;14.67;65.27
26376;BME280;30544;42.196;24.336;2023-03-21T08:37:22;98977.69;;;15.15;64.22
26376;BME280;30544;42.196;24.336;2023-03-21T08:39:49;98984.53;;;15.63;63.03
26376;BME280;30544;42.196;24.336;2023-03-21T08:42:16;98980.38;;;15.50;62.65
26376;BME280;30544;42.196;24.336;2023-03-21T08:44:43;98986.75;;;15.56;62.70
26376;BME280;30544;42.196;24.336;2023-03-21T08:47:11;98986.16;;;15.74;62.07
26376;BME280;30544;42.196;24.336;2023-03-21T08:49:38;98991.50;;;15.66;61.93
26376;BME280;30544;42.196;24.336;2023-03-21T08:52:05;98998.63;;;15.97;60.72
26376;BME280;30544;42.196;24.336;2023-03-21T08:54:32;99005.13;;;15.82;61.28
26376;BME280;30544;42.196;24.336;2023-03-21T08:56:59;99015.66;;;15.95;61.00
26376;BME280;30544;42.196;24.336;2023-03-21T08:59:26;98998.97;;;15.85;61.71
26376;BME280;30544;42.196;24.336;2023-03-21T09:01:53;98998.34;;;15.19;62.72
26376;BME280;30544;42.196;24.336;2023-03-21T09:04:21;98996.34;;;16.04;60.33
26376;BME280;30544;42.196;24.336;2023-03-21T09:06:50;98997.69;;;15.52;61.84
26376;BME280;30544;42.196;24.336;2023-03-21T09:09:17;98993.88;;;15.98;60.81
26376;BME280;30544;42.196;24.336;2023-03-21T09:11:44;98987.31;;;16.17;59.86
26376;BME280;30544;42.196;24.336;2023-03-21T09:14:10;98979.75;;;16.18;59.36
26376;BME280;30544;42.196;24.336;2023-03-21T09:16:37;98972.94;;;16.68;59.11
26376;BME280;30544;42.196;24.336;2023-03-21T09:19:04;98975.19;;;16.32;59.44
26376;BME280;30544;42.196;24.336;2023-03-21T09:21:35;98965.63;;;16.72;57.40
26376;BME280;30544;42.196;24.336;2023-03-21T09:24:03;98969.88;;;16.31;58.80
26376;BME280;30544;42.196;24.336;2023-03-21T09:26:31;98970.50;;;16.57;57.28
26376;BME280;30544;42.196;24.336;2023-03-21T09:28:58;98974.31;;;15.92;58.98
26376;BME280;30544;42.196;24.336;2023-03-21T09:31:26;98968.50;;;17.44;55.80
26376;BME280;30544;42.196;24.336;2023-03-21T09:33:53;98979.91;;;16.71;56.30
26376;BME280;30544;42.196;24.336;2023-03-21T09:36:21;98964.81;;;17.72;54.03
26376;BME280;30544;42.196;24.336;2023-03-21T09:38:50;98955.34;;;17.63;54.19
26376;BME280;30544;42.196;24.336;2023-03-21T09:41:28;98949.53;;;17.60;54.53
26376;BME280;30544;42.196;24.336;2023-03-21T09:44:09;98949.81;;;18.39;52.24
26376;BME280;30544;42.196;24.336;2023-03-21T09:46:41;98945.59;;;17.85;54.06
26376;BME280;30544;42.196;24.336;2023-03-21T09:49:15;98943.59;;;18.42;52.38
26376;BME280;30544;42.196;24.336;2023-03-21T09:51:48;98937.97;;;18.42;52.11
26376;BME280;30544;42.196;24.336;2023-03-21T09:54:22;98933.84;;;18.01;53.05
26376;BME280;30544;42.196;24.336;2023-03-21T09:56:51;98930.47;;;18.37;52.61
26376;BME280;30544;42.196;24.336;2023-03-21T09:59:22;98926.97;;;18.26;51.46
26376;BME280;30544;42.196;24.336;2023-03-21T10:01:52;98929.44;;;18.33;51.70
26376;BME280;30544;42.196;24.336;2023-03-21T10:04:19;98931.47;;;17.90;51.97
26376;BME280;30544;42.196;24.336;2023-03-21T10:06:54;98926.78;;;17.61;53.89
26376;BME280;30544;42.196;24.336;2023-03-21T10:09:25;98919.72;;;18.07;52.68
26376;BME280;30544;42.196;24.336;2023-03-21T10:11:55;98918.28;;;18.60;51.65
26376;BME280;30544;42.196;24.336;2023-03-21T10:14:27;98914.53;;;18.98;49.79
26376;BME280;30544;42.196;24.336;2023-03-21T10:16:58;98911.31;;;19.45;48.33
26376;BME280;30544;42.196;24.336;2023-03-21T10:19:27;98910.72;;;19.62;47.64
26376;BME280;30544;42.196;24.336;2023-03-21T10:21:54;98919.25;;;19.43;48.50
26376;BME280;30544;42.196;24.336;2023-03-21T10:24:24;98917.84;;;18.86;49.52
26376;BME280;30544;42.196;24.336;2023-03-21T10:26:53;98915.16;;;18.94;48.79
26376;BME280;30544;42.196;24.336;2023-03-21T10:29:23;98909.53;;;18.94;50.09
26376;BME280;30544;42.196;24.336;2023-03-21T10:31:52;98904.88;;;19.59;47.17
26376;BME280;30544;42.196;24.336;2023-03-21T10:34:29;98908.50;;;19.45;47.09
26376;BME280;30544;42.196;24.336;2023-03-21T10:36:58;98905.06;;;19.76;45.54
26376;BME280;30544;42.196;24.336;2023-03-21T10:39:31;98876.13;;;19.62;46.10
26376;BME280;30544;42.196;24.336;2023-03-21T10:41:59;98881.69;;;19.89;46.02
26376;BME280;30544;42.196;24.336;2023-03-21T10:44:29;98879.69;;;20.26;45.40
26376;BME280;30544;42.196;24.336;2023-03-21T10:46:57;98867.78;;;20.73;44.43
26376;BME280;30544;42.196;24.336;2023-03-21T10:49:25;98865.25;;;20.41;44.22
26376;BME280;30544;42.196;24.336;2023-03-21T10:51:57;98868.06;;;19.82;44.09
26376;BME280;30544;42.196;24.336;2023-03-21T10:54:28;98875.81;;;19.63;46.45
26376;BME280;30544;42.196;24.336;2023-03-21T10:56:57;98875.53;;;19.23;46.60
26376;BME280;30544;42.196;24.336;2023-03-21T10:59:27;98872.06;;;19.40;46.49
26376;BME280;30544;42.196;24.336;2023-03-21T11:02:02;98866.78;;;18.84;47.56
26376;BME280;30544;42.196;24.336;2023-03-21T11:04:31;98859.97;;;18.39;50.08
26376;BME280;30544;42.196;24.336;2023-03-21T11:07:02;98859.78;;;18.95;49.33
26376;BME280;30544;42.196;24.336;2023-03-21T11:09:45;98853.97;;;18.45;50.27
26376;BME280;30544;42.196;24.336;2023-03-21T11:12:13;98845.94;;;19.26;48.49
26376;BME280;30544;42.196;24.336;2023-03-21T11:14:41;98841.47;;;18.98;48.58
26376;BME280;30544;42.196;24.336;2023-03-21T11:17:23;98840.03;;;19.77;48.46
26376;BME280;30544;42.196;24.336;2023-03-21T11:19:51;98834.59;;;19.31;48.00
26376;BME280;30544;42.196;24.336;2023-03-21T11:22:20;98830.25;;;18.38;50.34
26376;BME280;30544;42.196;24.336;2023-03-21T11:24:51;98816.72;;;18.40;50.21
26376;BME280;30544;42.196;24.336;2023-03-21T11:27:19;98810.09;;;19.45;48.38
26376;BME280;30544;42.196;24.336;2023-03-21T11:29:47;98805.06;;;19.06;49.54
26376;BME280;30544;42.196;24.336;2023-03-21T11:32:21;98798.25;;;19.35;48.94
26376;BME280;30544;42.196;24.336;2023-03-21T11:34:49;98798.31;;;20.16;47.54
26376;BME280;30544;42.196;24.336;2023-03-21T11:37:20;98793.63;;;19.52;48.53
26376;BME280;30544;42.196;24.336;2023-03-21T11:39:55;98788.50;;;19.18;49.12
26376;BME280;30544;42.196;24.336;2023-03-21T11:42:26;98794.19;;;19.27;48.59
26376;BME280;30544;42.196;24.336;2023-03-21T11:45:00;98795.13;;;18.54;50.74
26376;BME280;30544;42.196;24.336;2023-03-21T11:47:28;98796.75;;;18.87;49.71
26376;BME280;30544;42.196;24.336;2023-03-21T11:49:56;98789.25;;;18.83;49.65
26376;BME280;30544;42.196;24.336;2023-03-21T11:52:29;98777.97;;;19.10;48.69
26376;BME280;30544;42.196;24.336;2023-03-21T11:55:22;98781.88;;;19.50;48.33
26376;BME280;30544;42.196;24.336;2023-03-21T11:58:02;98776.00;;;19.11;49.25
26376;BME280;30544;42.196;24.336;2023-03-21T12:00:36;98774.88;;;19.62;48.63
26376;BME280;30544;42.196;24.336;2023-03-21T12:03:33;98769.84;;;19.22;48.40
26376;BME280;30544;42.196;24.336;2023-03-21T12:06:11;98769.16;;;18.76;49.35
26376;BME280;30544;42.196;24.336;2023-03-21T12:08:45;98754.66;;;18.41;50.84
26376;BME280;30544;42.196;24.336;2023-03-21T12:11:24;98757.06;;;18.48;50.93
26376;BME280;30544;42.196;24.336;2023-03-21T12:14:02;98755.97;;;18.30;51.57
26376;BME280;30544;42.196;24.336;2023-03-21T12:16:41;98762.63;;;18.67;50.59
26376;BME280;30544;42.196;24.336;2023-03-21T12:19:38;98763.00;;;18.60;51.40
26376;BME280;30544;42.196;24.336;2023-03-21T12:22:12;98757.16;;;19.61;49.32
26376;BME280;30544;42.196;24.336;2023-03-21T12:24:51;98756.78;;;19.40;48.52
26376;BME280;30544;42.196;24.336;2023-03-21T12:27:28;98757.91;;;19.67;47.90
26376;BME280;30544;42.196;24.336;2023-03-21T12:30:10;98750.47;;;19.35;48.40
26376;BME280;30544;42.196;24.336;2023-03-21T12:32:53;98745.31;;;19.87;47.78
26376;BME280;30544;42.196;24.336;2023-03-21T12:35:34;98741.66;;;19.14;48.56
26376;BME280;30544;42.196;24.336;2023-03-21T12:38:14;98740.56;;;19.37;47.86
26376;BME280;30544;42.196;24.336;2023-03-21T12:41:02;98744.44;;;19.28;48.62
26376;BME280;30544;42.196;24.336;2023-03-21T12:43:39;98732.88;;;19.29;48.70
26376;BME280;30544;42.196;24.336;2023-03-21T12:46:12;98734.38;;;19.13;48.23
26376;BME280;30544;42.196;24.336;2023-03-21T12:48:44;98738.06;;;19.36;48.53
26376;BME280;30544;42.196;24.336;2023-03-21T12:51:15;98730.94;;;19.52;48.20
26376;BME280;30544;42.196;24.336;2023-03-21T12:53:49;98723.13;;;19.13;49.41
26376;BME280;30544;42.196;24.336;2023-03-21T12:56:21;98714.16;;;19.47;49.18
26376;BME280;30544;42.196;24.336;2023-03-21T12:58:53;98720.34;;;18.44;50.97
26376;BME280;30544;42.196;24.336;2023-03-21T13:01:23;98710.13;;;19.17;49.34
26376;BME280;30544;42.196;24.336;2023-03-21T13:04:01;98713.63;;;19.22;47.98
26376;BME280;30544;42.196;24.336;2023-03-21T13:06:31;98704.78;;;19.65;47.91